Jackson, MS

10:49 PM CST on March 01, 2015 (GMT -0600)
Jackson-Evers International | Change Station
CLOSE
Current Station
Airport
Location: Jackson,
Elevation: 328 ft
Nearby Weather Stations
Active Advisory: Flood Warning

Elev 328 ft 32.32 °N, 90.08 °W | Updated 24 minutes ago

Overcast
Overcast
57 °F
Feels Like 57 °F
N
5
Wind Variable Wind from SSE

Today
High -- | Low -- °F
--% Chance of Precip.
Yesterday
High -- | Low -- °F
Precip. -- in
6:28 AM 5:58 PM
Waxing Gibbous, 89% visible
Pressure 30.31 in
Visibility 8.0 miles
Clouds Overcast 400 ft
Dew Point 56 °F
Humidity 96%
Rainfall 0.85 in
Snow Depth Not available.
UV 0 out of 12
Pollen 8.80 out of 12
Air Quality Not available.
Flu Activity Not available.
SPECI KJAN 020425Z 16004KT 8SM OVC004 14/13 A3031 RMK AO2 T01390133

More Conditions Fewer Conditions

Pressure 30.31 in
Visibility 8.0 miles
Clouds Overcast 400 ft
Dew Point 56 °F
Humidity 96%
Rainfall 0.85 in
Snow Depth Not available.
UV 0 out of 12
Pollen 8.80 out of 12
Air Quality Not available.
Flu Activity Not available.
SPECI KJAN 020425Z 16004KT 8SM OVC004 14/13 A3031 RMK AO2 T01390133

More Conditions Fewer Conditions

10-Day Weather Forecast

Almanac

Astronomy

Mar. 01, 2015 Rise Set
Actual Time
Civil Twilight
Nautical Twilight
Astronomical Twilight
Moon
Length of Visible Light
Length of Day
Tomorrow will be .
, % of the Moon is Illuminated

Today's Extremes

State Highs State Lows

Community

WunderPhotos

Upload Photos

1,801,725 photos uploaded!

WunderBlogs® & News

Nearby

Air Quality

  Air Quality AQ Index Pollutant
Not available.

Snow Depth

Station Depth Elevation

Earthquake Activity

City Distance Mag. Time & Date
Minimum magnitude displayed is 2.5.

Coastal Water Temperatures

Place Temperature

Nearby Weather Stations

Flood Warning
Statement as of 8:27 PM CST on March 01, 2015


The Flood Warning continues for the Big Black River near Bovina
* until further notice.
* At 8:15 PM Sunday the stage was 30.3 feet.
* Minor flooding is occurring and minor flooding is forecast.
* Flood stage is 28.0 feet.
* Forecast... the river will continue rising to near 31.5 feet by
early Tuesday morning before slowly falling over the next several
days.
* Impact... at 32.0 feet... several access roads along and near the
river are under water.


              Flood observed forecast 7 am crest
location stg stg day time Mon Tue Wed crest time date

Lower Big Black River
Bovina 28 30.3 sun 08 PM 30.9 31.5 31.4 31.5 12 am 03/03




Lat... Lon 3217 9093 3224 9078 3256 9064 3245 9052
      3218 9065 3204 9102